Latest Coastal Weather Observations for Alva Beach

IDQ60701

Issued at 9:02 am EST Wednesday 28 January 2015 (issued every 10 minutes, with the page automatically refreshed every 10 minutes)

About coastal observations | Map of coastal stations | Coastal observations for QLD | Marine services | Other Formats
Station Details ID: 033295 Name: ALVA BEACH Lat: -19.46 Lon: 147.48 Height: 7.5 m
Data from the previous 72 hours. | See also: Recent months at Alva Beach
Date/Time
EST
Temp

°C
Wind Pressure Rain
since 9am
mm
Weather Cloud Vis
km
Sea
Height
m
Swell
Dir
 
Speed
knots
Gust
knots
hPa Trend Height
m
Period
s
Dir
28/09:00am 30.8 NNE 6 7 1001.7 - 12.6 - - - - - - -
28/08:30am 30.2 N 5 7 1001.5 - 12.6 - - - - - - -
28/08:00am 29.7 N 6 7 1001.4 - 12.6 - - - - - - -
28/07:30am 29.6 N 5 8 1001.2 - 12.6 - - - - - - -
28/07:00am 28.7 CALM 0 4 1001.0 - 12.6 - - - - - - -
28/06:30am 27.4 CALM 0 3 1000.7 - 12.6 - - - - - - -
28/06:00am 26.2 CALM 0 0 1000.6 - 12.6 - - - - - - -
28/05:30am 26.0 CALM 0 0 1000.5 - 12.6 - - - - - - -
28/05:00am 25.3 S 2 4 1000.2 - 12.6 - - - - - - -
28/04:30am 24.9 CALM 0 0 1000.0 - 12.4 - - - - - - -
28/04:00am 25.3 SSE 3 5 1000.0 - 12.4 - - - - - - -
28/03:30am 25.7 N 1 4 1000.1 - 12.4 - - - - - - -
28/03:00am 25.4 ESE 3 5 1000.0 - 12.4 Recent precip. - - - - - -
28/02:30am 24.6 NE 4 7 999.9 - 12.4 - - - - - - -
28/02:00am 25.9 NW 6 10 1000.9 - 2.6 - - - - - - -
28/01:30am 28.9 ENE 7 9 1000.9 - 0.0 - - - - - - -
28/01:00am 28.9 ENE 7 9 1001.4 - 0.0 - - - - - - -
28/12:30am 28.8 ENE 9 10 1001.7 - 0.0 - - - - - - -
28/12:00am 28.9 ENE 9 10 1002.0 - 0.0 - - - - - - -
 
Date/Time
EST
Temp

°C
Wind Pressure Rain
since 9am
mm
Weather Cloud Vis
km
Sea
Height
m
Swell
Dir
 
Speed
knots
Gust
knots
hPa Trend Height
m
Period
s
Dir
27/11:30pm 29.0 ENE 11 13 1002.4 - 0.0 - - - - - - -
27/11:00pm 29.2 ENE 11 14 1002.6 - 0.0 - - - - - - -
27/10:30pm 29.6 ENE 11 13 1002.9 - 0.0 - - - - - - -
27/10:00pm 29.4 ENE 10 12 1002.9 - 0.0 - - - - - - -
27/09:30pm 29.4 ENE 9 12 1002.7 - 0.0 - - - - - - -
27/09:00pm 29.4 NE 9 11 1002.4 - 0.0 - - - - - - -
27/08:30pm 29.3 NE 9 11 1002.0 - 0.0 - - - - - - -
27/08:00pm 29.3 NE 10 12 1001.8 - 0.0 - - - - - - -
27/07:30pm 29.6 NE 11 13 1001.6 - 0.0 - - - - - - -
27/07:00pm 29.8 ENE 13 15 1001.1 - 0.0 - - - - - - -
27/06:30pm 30.0 NE 14 17 1000.3 - 0.0 - - - - - - -
27/06:00pm 30.4 ENE 14 17 999.7 - 0.0 - - - - - - -
27/05:30pm 30.8 ENE 15 18 999.4 - 0.0 - - - - - - -
27/05:00pm 31.3 ENE 12 15 999.3 - 0.0 - - - - - - -
27/04:30pm 31.8 ENE 13 16 999.5 - 0.0 - - - - - - -
27/04:00pm 32.1 ENE 11 13 999.9 - 0.0 - - - - - - -
27/03:30pm 31.8 NE 10 11 999.7 - 0.0 - - - - - - -
27/03:00pm 32.4 ENE 10 11 999.9 - 0.0 - - - - - - -
27/02:30pm 32.6 NE 9 11 1000.4 - 0.0 - - - - - - -
27/02:00pm 32.5 ENE 9 11 1000.7 - 0.0 - - - - - - -
27/01:30pm 32.4 NE 9 11 1000.9 - 0.0 - - - - - - -
27/01:00pm 32.4 NE 9 10 1001.2 - 0.0 - - - - - - -
27/12:30pm 32.5 NE 9 10 1001.4 - 0.0 - - - - - - -
27/12:00pm 32.6 ENE 8 10 1001.9 - 0.0 - - - - - - -
27/11:30am 32.6 ENE 8 11 1002.3 - 0.0 - - - - - - -
27/11:00am 32.2 NE 7 9 1002.6 - 0.0 - - - - - - -
27/10:30am 32.0 NE 7 9 1002.5 - 0.0 - - - - - - -
27/10:00am 31.8 NE 7 9 1002.8 - 0.0 - - - - - - -
27/09:30am 32.1 NNE 5 8 1002.7 - 0.0 - - - - - - -
27/09:00am 32.2 WNW 2 4 1002.7 - 0.0 - - - - - - -
27/08:30am 31.2 NW 3 5 1002.9 - 0.0 - - - - - - -
27/08:00am 30.6 W 4 6 1002.6 - 0.0 - - - - - - -
27/07:30am 30.5 WSW 3 5 1002.4 - 0.0 - - - - - - -
27/07:00am 29.5 W 1 4 1002.5 - 0.0 - - - - - - -
27/06:30am 28.7 CALM 0 0 1002.4 - 0.0 - - - - - - -
27/06:00am 28.3 NNW 3 4 1002.3 - 0.0 - - - - - - -
27/05:30am 28.0 NNW 3 4 1002.1 - 0.0 - - - - - - -
27/05:00am 28.1 CALM 0 4 1001.8 - 0.0 - - - - - - -
27/04:30am 28.2 NW 3 4 1001.8 - 0.0 - - - - - - -
27/04:00am 28.4 NNW 3 5 1001.8 - 0.0 - - - - - - -
27/03:30am 28.5 NNW 3 5 1001.9 - 0.0 - - - - - - -
27/03:00am 28.5 NNW 4 6 1002.1 - 0.0 - - - - - - -
27/02:30am 28.4 NNW 4 6 1002.2 - 0.0 - - - - - - -
27/02:00am 28.4 NNW 4 7 1002.3 - 0.0 - - - - - - -
27/01:30am 28.7 NNW 5 9 1002.6 - 0.0 - - - - - - -
27/01:00am 28.8 NNW 5 9 1003.2 - 0.0 - - - - - - -
27/12:30am 28.8 NNW 5 8 1003.7 - 0.0 - - - - - - -
27/12:00am 28.8 NNW 5 7 1004.2 - 0.0 - - - - - - -
 
Date/Time
EST
Temp

°C
Wind Pressure Rain
since 9am
mm
Weather Cloud Vis
km
Sea
Height
m
Swell
Dir
 
Speed
knots
Gust
knots
hPa Trend Height
m
Period
s
Dir
26/11:30pm 28.8 NNW 6 9 1004.6 - 0.0 - - - - - - -
26/11:00pm 28.8 NNW 5 7 1004.6 - 0.0 - - - - - - -
26/10:30pm 28.7 NNW 4 5 1004.2 - 0.0 - - - - - - -
26/10:00pm 28.6 N 3 5 1004.0 - 0.0 - - - - - - -
26/09:30pm 28.5 SSE 3 6 1003.9 - 0.0 - - - - - - -
26/09:00pm 28.7 NNW 5 7 1003.6 - 0.0 - - - - - - -
26/08:30pm 28.8 NNW 5 7 1003.4 - 0.0 - - - - - - -
26/08:00pm 29.3 NNW 6 9 1002.9 - 0.0 - - - - - - -
26/07:30pm 29.4 N 7 11 1002.4 - 0.0 - - - - - - -
26/07:00pm 29.5 N 7 10 1002.2 - 0.0 - - - - - - -
26/06:30pm 29.9 N 8 11 1002.2 - 0.0 - - - - - - -
26/06:00pm 30.2 N 8 12 1002.1 - 0.0 - - - - - - -
26/05:30pm 30.4 N 8 12 1001.9 - 0.0 - - - - - - -
26/05:00pm 30.5 N 8 11 1001.7 - 0.0 - - - - - - -
26/04:30pm 31.1 N 9 12 1001.7 - 0.0 - - - - - - -
26/04:00pm 31.2 N 9 12 1002.0 - 0.0 - - - - - - -
26/03:30pm 31.2 N 8 11 1002.4 - 0.0 - - - - - - -
26/03:00pm 31.7 N 7 11 1002.8 - 0.0 - - - - - - -
26/02:30pm 33.0 NW 4 7 1003.2 - 0.0 - - - - - - -
26/02:00pm 32.3 N 7 11 1003.6 - 0.0 - - - - - - -
26/01:30pm 32.5 WNW 4 6 1003.8 - 0.0 - - - - - - -
26/01:00pm 32.3 NNW 6 9 1004.2 - 0.0 - - - - - - -
26/12:30pm 31.6 NW 5 8 1004.5 - 0.0 - - - - - - -
26/12:00pm 31.0 NW 5 9 1004.7 - 0.0 - - - - - - -
26/11:30am 30.9 WNW 5 8 1005.1 - 0.0 - - - - - - -
26/11:00am 30.5 WNW 4 7 1005.4 - 0.0 - - - - - - -
26/10:30am 30.2 WNW 5 9 1005.8 - 0.0 - - - - - - -
26/10:00am 30.3 W 5 7 1005.8 - 0.0 - - - - - - -
26/09:30am 29.3 SW 4 6 1005.9 - 0.0 - - - - - - -
26/09:00am 28.6 SSW 3 6 1005.5 - 0.4 Recent precip. - - - - - -
26/08:30am 27.4 W 6 8 1005.4 - 0.4 - - - - - - -
26/08:00am 27.5 WSW 5 7 1005.6 - 0.2 - - - - - - -
26/07:30am 26.7 SW 4 7 1005.3 - 0.2 - - - - - - -
26/07:00am 26.1 WSW 4 7 1005.1 - 0.2 - - - - - - -
26/06:30am 25.6 W 3 4 1004.8 - 0.2 - - - - - - -
26/06:00am 25.2 W 1 3 1005.1 - 0.2 - - - - - - -
26/05:30am 25.3 CALM 0 0 1005.1 - 0.2 - - - - - - -
26/05:00am 25.3 SSW 2 4 1005.4 - 0.2 - - - - - - -
26/04:30am 25.4 SSW 3 5 1005.8 - 0.2 - - - - - - -
26/04:00am 25.4 SSW 5 10 1005.9 - 0.2 - - - - - - -
26/03:30am 25.5 SSW 6 11 1006.1 - 0.2 - - - - - - -
26/03:00am 25.3 SW 5 8 1005.7 - 0.2 - - - - - - -
26/02:30am 25.3 SW 5 8 1005.3 - 0.2 - - - - - - -
26/02:00am 25.4 SW 5 9 1005.8 - 0.2 - - - - - - -
26/01:30am 25.8 SW 5 8 1006.0 - 0.2 - - - - - - -
26/01:00am 26.2 SW 4 6 1006.8 - 0.2 - - - - - - -
26/12:30am 26.6 WSW 3 6 1007.5 - 0.2 - - - - - - -
26/12:00am 26.6 NW 4 6 1007.3 - 0.2 - - - - - - -
 
Date/Time
EST
Temp

°C
Wind Pressure Rain
since 9am
mm
Weather Cloud Vis
km
Sea
Height
m
Swell
Dir
 
Speed
knots
Gust
knots
hPa Trend Height
m
Period
s
Dir
25/11:30pm 27.3 N 2 5 1007.5 - 0.2 - - - - - - -
25/11:00pm 27.6 E 3 6 1007.4 - 0.2 - - - - - - -
25/10:30pm 27.5 E 10 14 1006.7 - 0.2 - - - - - - -
25/10:00pm 26.9 E 9 13 1007.0 - 0.2 - - - - - - -
25/09:30pm 27.1 E 12 17 1007.7 - 0.2 - - - - - - -
25/09:00pm 27.0 ESE 11 18 1007.8 - 0.2 - - - - - - -
25/08:30pm 25.9 S 6 9 1007.3 - 0.2 - - - - - - -
25/08:00pm 25.9 SSE 4 8 1006.3 - 0.2 - - - - - - -
25/07:30pm 26.0 S 1 4 1005.9 - 0.2 - - - - - - -
25/07:00pm 26.3 SW 5 8 1005.5 - 0.2 - - - - - - -
25/06:30pm 26.9 SW 6 11 1005.2 - 0.2 - - - - - - -
25/06:00pm 28.8 WSW 5 9 1005.1 - 0.2 - - - - - - -
25/05:30pm 29.8 W 7 12 1004.7 - 0.2 - - - - - - -
25/05:00pm 29.8 NW 5 9 1004.4 - 0.2 - - - - - - -
25/04:30pm 29.6 NNW 7 13 1003.8 - 0.2 - - - - - - -
25/04:00pm 30.2 NNW 7 13 1003.7 - 0.2 - - - - - - -
25/03:30pm 30.4 NNW 9 18 1004.1 - 0.2 - - - - - - -
25/03:00pm 30.4 N 11 16 1004.5 - 0.2 - - - - - - -
25/02:30pm 31.4 N 9 13 1004.9 - 0.2 - - - - - - -
25/02:00pm 32.1 NNW 9 15 1005.2 - 0.2 - - - - - - -
25/01:30pm 32.2 NW 8 12 1005.9 - 0.2 - - - - - - -
25/01:00pm 31.3 NNW 9 15 1006.2 - 0.2 - - - - - - -
25/12:30pm 31.7 NW 8 13 1006.5 - 0.2 - - - - - - -
25/12:00pm 32.1 NW 7 12 1006.8 - 0.2 - - - - - - -
25/11:30am 31.8 NW 6 11 1007.0 - 0.2 - - - - - - -
25/11:00am 31.6 NW 7 14 1007.4 - 0.2 - - - - - - -
25/10:30am 31.1 NW 9 14 1007.8 - 0.2 - - - - - - -
25/10:00am 31.3 WNW 6 9 1008.0 - 0.2 - - - - - - -
25/09:30am 31.2 WNW 6 10 1007.8 - 0.2 - - - - - - -

Other Formats:

Comma delimited format used in spreadsheet applications
http://www.bom.gov.au/fwo/IDQ60701/IDQ60701.95296.axf

JavaScript Object Notation format (JSON) in row-major order
http://www.bom.gov.au/fwo/IDQ60701/IDQ60701.95296.json